sensor_id;sensor_type;location;lat;lon;timestamp;pressure;altitude;pressure_sealevel;temperature
82411;BMP180;72054;55.772;49.096;2023-08-07T00:00:40;100777.00;;;28.40
82411;BMP180;72054;55.772;49.096;2023-08-07T00:01:41;100761.00;;;28.40
82411;BMP180;72054;55.772;49.096;2023-08-07T00:02:41;100753.00;;;28.40
82411;BMP180;72054;55.772;49.096;2023-08-07T00:03:42;100771.00;;;28.30
82411;BMP180;72054;55.772;49.096;2023-08-07T00:04:43;100773.00;;;28.30
82411;BMP180;72054;55.772;49.096;2023-08-07T00:05:46;100772.00;;;28.30
82411;BMP180;72054;55.772;49.096;2023-08-07T00:06:47;100784.00;;;28.30
82411;BMP180;72054;55.772;49.096;2023-08-07T00:07:47;100763.00;;;28.30
82411;BMP180;72054;55.772;49.096;2023-08-07T00:08:48;100790.00;;;28.30
82411;BMP180;72054;55.772;49.096;2023-08-07T00:09:48;100796.00;;;28.30
82411;BMP180;72054;55.772;49.096;2023-08-07T00:10:49;100783.00;;;28.30
82411;BMP180;72054;55.772;49.096;2023-08-07T00:11:49;100772.00;;;28.30
82411;BMP180;72054;55.772;49.096;2023-08-07T00:12:50;100790.00;;;28.30
82411;BMP180;72054;55.772;49.096;2023-08-07T00:13:50;100790.00;;;28.30
82411;BMP180;72054;55.772;49.096;2023-08-07T00:14:51;100772.00;;;28.30
82411;BMP180;72054;55.772;49.096;2023-08-07T00:15:51;100781.00;;;28.30
82411;BMP180;72054;55.772;49.096;2023-08-07T00:16:52;100753.00;;;28.30
82411;BMP180;72054;55.772;49.096;2023-08-07T00:17:52;100788.00;;;28.30
82411;BMP180;72054;55.772;49.096;2023-08-07T00:18:53;100788.00;;;28.30
82411;BMP180;72054;55.772;49.096;2023-08-07T00:19:56;100791.00;;;28.20
82411;BMP180;72054;55.772;49.096;2023-08-07T00:20:56;100778.00;;;28.30
82411;BMP180;72054;55.772;49.096;2023-08-07T00:21:57;100796.00;;;28.20
82411;BMP180;72054;55.772;49.096;2023-08-07T00:22:57;100793.00;;;28.20
82411;BMP180;72054;55.772;49.096;2023-08-07T00:23:58;100790.00;;;28.20
82411;BMP180;72054;55.772;49.096;2023-08-07T00:24:58;100790.00;;;28.20
82411;BMP180;72054;55.772;49.096;2023-08-07T00:25:59;100795.00;;;28.20
82411;BMP180;72054;55.772;49.096;2023-08-07T00:26:59;100791.00;;;28.20
82411;BMP180;72054;55.772;49.096;2023-08-07T00:27:59;100789.00;;;28.20
82411;BMP180;72054;55.772;49.096;2023-08-07T00:29:00;100787.00;;;28.20
82411;BMP180;72054;55.772;49.096;2023-08-07T00:30:00;100743.00;;;28.10
82411;BMP180;72054;55.772;49.096;2023-08-07T00:31:01;100795.00;;;28.20
82411;BMP180;72054;55.772;49.096;2023-08-07T00:32:02;100794.00;;;28.10
82411;BMP180;72054;55.772;49.096;2023-08-07T00:33:02;100785.00;;;28.20
82411;BMP180;72054;55.772;49.096;2023-08-07T00:34:03;100787.00;;;28.20
82411;BMP180;72054;55.772;49.096;2023-08-07T00:35:05;100777.00;;;28.10
82411;BMP180;72054;55.772;49.096;2023-08-07T00:36:06;100794.00;;;28.10
82411;BMP180;72054;55.772;49.096;2023-08-07T00:37:06;100778.00;;;28.10
82411;BMP180;72054;55.772;49.096;2023-08-07T00:38:07;100783.00;;;28.10
82411;BMP180;72054;55.772;49.096;2023-08-07T00:39:07;100783.00;;;28.10
82411;BMP180;72054;55.772;49.096;2023-08-07T00:40:08;100781.00;;;28.10
82411;BMP180;72054;55.772;49.096;2023-08-07T00:41:09;100777.00;;;28.10
82411;BMP180;72054;55.772;49.096;2023-08-07T00:42:10;100776.00;;;28.10
82411;BMP180;72054;55.772;49.096;2023-08-07T00:43:10;100779.00;;;28.10
82411;BMP180;72054;55.772;49.096;2023-08-07T00:44:11;100782.00;;;28.00
82411;BMP180;72054;55.772;49.096;2023-08-07T00:45:11;100786.00;;;28.00
82411;BMP180;72054;55.772;49.096;2023-08-07T00:46:12;100786.00;;;28.00
82411;BMP180;72054;55.772;49.096;2023-08-07T00:47:12;100778.00;;;28.00
82411;BMP180;72054;55.772;49.096;2023-08-07T00:48:15;100789.00;;;28.00
82411;BMP180;72054;55.772;49.096;2023-08-07T00:49:16;100789.00;;;28.00
82411;BMP180;72054;55.772;49.096;2023-08-07T00:50:18;100775.00;;;28.00
82411;BMP180;72054;55.772;49.096;2023-08-07T00:51:20;100773.00;;;28.00
82411;BMP180;72054;55.772;49.096;2023-08-07T00:52:20;100775.00;;;28.00
82411;BMP180;72054;55.772;49.096;2023-08-07T00:53:21;100699.00;;;28.00
82411;BMP180;72054;55.772;49.096;2023-08-07T00:54:21;100782.00;;;28.00
82411;BMP180;72054;55.772;49.096;2023-08-07T00:55:22;100702.00;;;28.00
82411;BMP180;72054;55.772;49.096;2023-08-07T00:56:23;100770.00;;;28.00
82411;BMP180;72054;55.772;49.096;2023-08-07T00:57:24;100772.00;;;28.00
82411;BMP180;72054;55.772;49.096;2023-08-07T00:58:25;100774.00;;;28.00
82411;BMP180;72054;55.772;49.096;2023-08-07T00:59:26;100773.00;;;28.00
82411;BMP180;72054;55.772;49.096;2023-08-07T01:00:29;100767.00;;;28.00
82411;BMP180;72054;55.772;49.096;2023-08-07T01:01:30;100779.00;;;28.00
82411;BMP180;72054;55.772;49.096;2023-08-07T01:02:31;100716.00;;;28.00
82411;BMP180;72054;55.772;49.096;2023-08-07T01:03:32;100774.00;;;28.00
82411;BMP180;72054;55.772;49.096;2023-08-07T01:04:32;100778.00;;;28.00
82411;BMP180;72054;55.772;49.096;2023-08-07T01:05:33;100774.00;;;28.00
82411;BMP180;72054;55.772;49.096;2023-08-07T01:06:34;100766.00;;;28.00
82411;BMP180;72054;55.772;49.096;2023-08-07T01:07:34;100775.00;;;27.90
82411;BMP180;72054;55.772;49.096;2023-08-07T01:08:35;100772.00;;;28.00
82411;BMP180;72054;55.772;49.096;2023-08-07T01:09:36;100774.00;;;27.90
82411;BMP180;72054;55.772;49.096;2023-08-07T01:11:50;100770.00;;;27.90
82411;BMP180;72054;55.772;49.096;2023-08-07T01:13:01;100769.00;;;27.90
82411;BMP180;72054;55.772;49.096;2023-08-07T01:15:16;100764.00;;;27.90
82411;BMP180;72054;55.772;49.096;2023-08-07T01:16:45;100766.00;;;28.00
82411;BMP180;72054;55.772;49.096;2023-08-07T01:17:48;100773.00;;;27.90
82411;BMP180;72054;55.772;49.096;2023-08-07T01:18:50;100763.00;;;27.90
82411;BMP180;72054;55.772;49.096;2023-08-07T01:19:52;100770.00;;;27.90
82411;BMP180;72054;55.772;49.096;2023-08-07T01:20:52;100768.00;;;27.90
82411;BMP180;72054;55.772;49.096;2023-08-07T01:22:19;100769.00;;;27.90
82411;BMP180;72054;55.772;49.096;2023-08-07T01:23:20;100773.00;;;27.90
82411;BMP180;72054;55.772;49.096;2023-08-07T01:24:20;100771.00;;;27.90
82411;BMP180;72054;55.772;49.096;2023-08-07T01:25:21;100769.00;;;27.90
82411;BMP180;72054;55.772;49.096;2023-08-07T01:26:21;100759.00;;;27.90
82411;BMP180;72054;55.772;49.096;2023-08-07T01:27:34;100769.00;;;27.80
82411;BMP180;72054;55.772;49.096;2023-08-07T01:28:42;100757.00;;;27.90
82411;BMP180;72054;55.772;49.096;2023-08-07T01:31:01;100751.00;;;27.90
82411;BMP180;72054;55.772;49.096;2023-08-07T01:32:05;100765.00;;;27.80
82411;BMP180;72054;55.772;49.096;2023-08-07T01:33:27;100779.00;;;27.90
82411;BMP180;72054;55.772;49.096;2023-08-07T01:34:33;100771.00;;;27.80
82411;BMP180;72054;55.772;49.096;2023-08-07T01:35:43;100779.00;;;27.80
82411;BMP180;72054;55.772;49.096;2023-08-07T01:36:45;100785.00;;;27.80
82411;BMP180;72054;55.772;49.096;2023-08-07T01:37:46;100773.00;;;27.80
82411;BMP180;72054;55.772;49.096;2023-08-07T01:38:47;100774.00;;;27.90
82411;BMP180;72054;55.772;49.096;2023-08-07T01:39:49;100777.00;;;27.90
82411;BMP180;72054;55.772;49.096;2023-08-07T01:40:52;100786.00;;;27.80
82411;BMP180;72054;55.772;49.096;2023-08-07T01:41:53;100771.00;;;27.80
82411;BMP180;72054;55.772;49.096;2023-08-07T01:42:55;100783.00;;;27.80
82411;BMP180;72054;55.772;49.096;2023-08-07T01:43:57;100777.00;;;27.80
82411;BMP180;72054;55.772;49.096;2023-08-07T01:44:58;100783.00;;;27.80
82411;BMP180;72054;55.772;49.096;2023-08-07T01:45:58;100780.00;;;27.80
82411;BMP180;72054;55.772;49.096;2023-08-07T01:46:59;100784.00;;;27.90
82411;BMP180;72054;55.772;49.096;2023-08-07T01:48:00;100755.00;;;27.90
82411;BMP180;72054;55.772;49.096;2023-08-07T01:49:01;100782.00;;;27.90
82411;BMP180;72054;55.772;49.096;2023-08-07T01:50:01;100783.00;;;27.90
82411;BMP180;72054;55.772;49.096;2023-08-07T01:51:02;100767.00;;;27.90
82411;BMP180;72054;55.772;49.096;2023-08-07T01:52:03;100776.00;;;27.90
82411;BMP180;72054;55.772;49.096;2023-08-07T01:53:04;100769.00;;;27.90
82411;BMP180;72054;55.772;49.096;2023-08-07T01:54:05;100781.00;;;27.90
82411;BMP180;72054;55.772;49.096;2023-08-07T01:55:05;100776.00;;;27.90
82411;BMP180;72054;55.772;49.096;2023-08-07T01:56:06;100775.00;;;27.90
82411;BMP180;72054;55.772;49.096;2023-08-07T01:57:06;100786.00;;;27.90
82411;BMP180;72054;55.772;49.096;2023-08-07T01:58:07;100790.00;;;27.90
82411;BMP180;72054;55.772;49.096;2023-08-07T01:59:07;100786.00;;;27.90
82411;BMP180;72054;55.772;49.096;2023-08-07T02:00:08;100786.00;;;27.90
82411;BMP180;72054;55.772;49.096;2023-08-07T02:01:09;100790.00;;;27.90
82411;BMP180;72054;55.772;49.096;2023-08-07T02:02:09;100790.00;;;27.90
82411;BMP180;72054;55.772;49.096;2023-08-07T02:03:10;100779.00;;;27.90
82411;BMP180;72054;55.772;49.096;2023-08-07T02:04:11;100791.00;;;27.90
82411;BMP180;72054;55.772;49.096;2023-08-07T02:05:11;100779.00;;;27.90
82411;BMP180;72054;55.772;49.096;2023-08-07T02:06:11;100781.00;;;28.00
82411;BMP180;72054;55.772;49.096;2023-08-07T02:07:12;100766.00;;;28.00
82411;BMP180;72054;55.772;49.096;2023-08-07T02:08:12;100780.00;;;28.00
82411;BMP180;72054;55.772;49.096;2023-08-07T02:09:13;100774.00;;;28.00
82411;BMP180;72054;55.772;49.096;2023-08-07T02:10:13;100781.00;;;28.00
82411;BMP180;72054;55.772;49.096;2023-08-07T02:11:14;100778.00;;;28.00
82411;BMP180;72054;55.772;49.096;2023-08-07T02:12:15;100784.00;;;28.00
82411;BMP180;72054;55.772;49.096;2023-08-07T02:13:15;100781.00;;;28.00
82411;BMP180;72054;55.772;49.096;2023-08-07T02:14:16;100774.00;;;28.10
82411;BMP180;72054;55.772;49.096;2023-08-07T02:15:16;100774.00;;;28.10
82411;BMP180;72054;55.772;49.096;2023-08-07T02:16:17;100783.00;;;28.10
82411;BMP180;72054;55.772;49.096;2023-08-07T02:17:19;100776.00;;;28.10
82411;BMP180;72054;55.772;49.096;2023-08-07T02:18:20;100780.00;;;28.20
82411;BMP180;72054;55.772;49.096;2023-08-07T02:19:20;100783.00;;;28.20
82411;BMP180;72054;55.772;49.096;2023-08-07T02:20:21;100784.00;;;28.20
82411;BMP180;72054;55.772;49.096;2023-08-07T02:21:21;100785.00;;;28.20
82411;BMP180;72054;55.772;49.096;2023-08-07T02:22:22;100780.00;;;28.20
82411;BMP180;72054;55.772;49.096;2023-08-07T02:23:22;100784.00;;;28.30
82411;BMP180;72054;55.772;49.096;2023-08-07T02:24:23;100771.00;;;28.30
82411;BMP180;72054;55.772;49.096;2023-08-07T02:25:23;100776.00;;;28.30
82411;BMP180;72054;55.772;49.096;2023-08-07T02:26:24;100778.00;;;28.40
82411;BMP180;72054;55.772;49.096;2023-08-07T02:27:24;100778.00;;;28.40
82411;BMP180;72054;55.772;49.096;2023-08-07T02:28:25;100776.00;;;28.50
82411;BMP180;72054;55.772;49.096;2023-08-07T02:29:25;100778.00;;;28.50
82411;BMP180;72054;55.772;49.096;2023-08-07T02:30:26;100787.00;;;28.60
82411;BMP180;72054;55.772;49.096;2023-08-07T02:31:26;100786.00;;;28.60
82411;BMP180;72054;55.772;49.096;2023-08-07T02:32:26;100785.00;;;28.60
82411;BMP180;72054;55.772;49.096;2023-08-07T02:33:27;100783.00;;;28.70
82411;BMP180;72054;55.772;49.096;2023-08-07T02:34:30;100783.00;;;28.70
82411;BMP180;72054;55.772;49.096;2023-08-07T02:35:31;100782.00;;;28.80
82411;BMP180;72054;55.772;49.096;2023-08-07T02:36:31;100788.00;;;28.90
82411;BMP180;72054;55.772;49.096;2023-08-07T02:37:32;100785.00;;;28.90
82411;BMP180;72054;55.772;49.096;2023-08-07T02:38:32;100787.00;;;29.00
82411;BMP180;72054;55.772;49.096;2023-08-07T02:39:33;100784.00;;;29.00
82411;BMP180;72054;55.772;49.096;2023-08-07T02:40:33;100778.00;;;29.10
82411;BMP180;72054;55.772;49.096;2023-08-07T02:41:34;100756.00;;;29.10
82411;BMP180;72054;55.772;49.096;2023-08-07T02:42:35;100789.00;;;29.20
82411;BMP180;72054;55.772;49.096;2023-08-07T02:43:36;100789.00;;;29.20
82411;BMP180;72054;55.772;49.096;2023-08-07T02:44:36;100775.00;;;29.30
82411;BMP180;72054;55.772;49.096;2023-08-07T02:45:37;100788.00;;;29.30
82411;BMP180;72054;55.772;49.096;2023-08-07T02:46:37;100782.00;;;29.40
82411;BMP180;72054;55.772;49.096;2023-08-07T02:47:37;100783.00;;;29.40
82411;BMP180;72054;55.772;49.096;2023-08-07T02:48:38;100785.00;;;29.50
82411;BMP180;72054;55.772;49.096;2023-08-07T02:49:40;100788.00;;;29.60
82411;BMP180;72054;55.772;49.096;2023-08-07T02:50:40;100794.00;;;29.60
82411;BMP180;72054;55.772;49.096;2023-08-07T02:51:41;100786.00;;;29.70
82411;BMP180;72054;55.772;49.096;2023-08-07T02:52:41;100767.00;;;29.70
82411;BMP180;72054;55.772;49.096;2023-08-07T02:53:42;100785.00;;;29.80
82411;BMP180;72054;55.772;49.096;2023-08-07T02:54:42;100791.00;;;29.80
82411;BMP180;72054;55.772;49.096;2023-08-07T02:55:45;100787.00;;;29.90
82411;BMP180;72054;55.772;49.096;2023-08-07T02:56:46;100777.00;;;29.90
82411;BMP180;72054;55.772;49.096;2023-08-07T02:57:46;100791.00;;;30.00
82411;BMP180;72054;55.772;49.096;2023-08-07T02:58:47;100789.00;;;30.00
82411;BMP180;72054;55.772;49.096;2023-08-07T02:59:48;100782.00;;;30.10
82411;BMP180;72054;55.772;49.096;2023-08-07T03:00:48;100745.00;;;30.10
82411;BMP180;72054;55.772;49.096;2023-08-07T03:01:49;100780.00;;;30.20
82411;BMP180;72054;55.772;49.096;2023-08-07T03:02:50;100781.00;;;30.30
82411;BMP180;72054;55.772;49.096;2023-08-07T03:03:50;100783.00;;;30.30
82411;BMP180;72054;55.772;49.096;2023-08-07T03:04:51;100780.00;;;30.40
82411;BMP180;72054;55.772;49.096;2023-08-07T03:05:51;100789.00;;;30.50
82411;BMP180;72054;55.772;49.096;2023-08-07T03:06:52;100781.00;;;30.50
82411;BMP180;72054;55.772;49.096;2023-08-07T03:07:52;100794.00;;;30.60
82411;BMP180;72054;55.772;49.096;2023-08-07T03:08:53;100779.00;;;30.60
82411;BMP180;72054;55.772;49.096;2023-08-07T03:09:53;100776.00;;;30.70
82411;BMP180;72054;55.772;49.096;2023-08-07T03:10:56;100782.00;;;30.80
82411;BMP180;72054;55.772;49.096;2023-08-07T03:11:56;100764.00;;;30.80
82411;BMP180;72054;55.772;49.096;2023-08-07T03:13:03;100786.00;;;30.90
82411;BMP180;72054;55.772;49.096;2023-08-07T03:14:03;100789.00;;;31.00
82411;BMP180;72054;55.772;49.096;2023-08-07T03:15:05;100772.00;;;31.00
82411;BMP180;72054;55.772;49.096;2023-08-07T03:16:06;100783.00;;;31.10
82411;BMP180;72054;55.772;49.096;2023-08-07T03:17:07;100782.00;;;31.10
82411;BMP180;72054;55.772;49.096;2023-08-07T03:18:08;100779.00;;;31.20
82411;BMP180;72054;55.772;49.096;2023-08-07T03:19:08;100780.00;;;31.30
82411;BMP180;72054;55.772;49.096;2023-08-07T03:20:09;100781.00;;;31.30
82411;BMP180;72054;55.772;49.096;2023-08-07T03:21:10;100784.00;;;31.40
82411;BMP180;72054;55.772;49.096;2023-08-07T03:22:11;100772.00;;;31.40
82411;BMP180;72054;55.772;49.096;2023-08-07T03:23:11;100782.00;;;31.50
82411;BMP180;72054;55.772;49.096;2023-08-07T03:24:12;100779.00;;;31.60
82411;BMP180;72054;55.772;49.096;2023-08-07T03:25:12;100789.00;;;31.60
82411;BMP180;72054;55.772;49.096;2023-08-07T03:26:13;100748.00;;;31.70
82411;BMP180;72054;55.772;49.096;2023-08-07T03:27:14;100781.00;;;31.80
82411;BMP180;72054;55.772;49.096;2023-08-07T03:28:14;100775.00;;;31.90
82411;BMP180;72054;55.772;49.096;2023-08-07T03:29:15;100766.00;;;31.90
82411;BMP180;72054;55.772;49.096;2023-08-07T03:30:15;100766.00;;;32.00
82411;BMP180;72054;55.772;49.096;2023-08-07T03:31:16;100766.00;;;32.10
82411;BMP180;72054;55.772;49.096;2023-08-07T03:32:17;100766.00;;;32.20
82411;BMP180;72054;55.772;49.096;2023-08-07T03:33:17;100772.00;;;32.30
82411;BMP180;72054;55.772;49.096;2023-08-07T03:34:18;100772.00;;;32.40
82411;BMP180;72054;55.772;49.096;2023-08-07T03:35:18;100766.00;;;32.40
82411;BMP180;72054;55.772;49.096;2023-08-07T03:36:19;100769.00;;;32.50
82411;BMP180;72054;55.772;49.096;2023-08-07T03:37:19;100771.00;;;32.60
82411;BMP180;72054;55.772;49.096;2023-08-07T03:38:20;100779.00;;;32.60
82411;BMP180;72054;55.772;49.096;2023-08-07T03:39:20;100773.00;;;32.70
82411;BMP180;72054;55.772;49.096;2023-08-07T03:40:21;100768.00;;;32.80
82411;BMP180;72054;55.772;49.096;2023-08-07T03:41:21;100774.00;;;32.80
82411;BMP180;72054;55.772;49.096;2023-08-07T03:42:21;100744.00;;;32.90
82411;BMP180;72054;55.772;49.096;2023-08-07T03:43:22;100776.00;;;33.00
82411;BMP180;72054;55.772;49.096;2023-08-07T03:44:22;100774.00;;;33.10
82411;BMP180;72054;55.772;49.096;2023-08-07T03:45:23;100777.00;;;33.20
82411;BMP180;72054;55.772;49.096;2023-08-07T03:46:23;100779.00;;;33.20
82411;BMP180;72054;55.772;49.096;2023-08-07T03:47:24;100757.00;;;33.30
82411;BMP180;72054;55.772;49.096;2023-08-07T03:48:24;100773.00;;;33.40
82411;BMP180;72054;55.772;49.096;2023-08-07T03:49:25;100770.00;;;33.50
82411;BMP180;72054;55.772;49.096;2023-08-07T03:50:25;100767.00;;;33.50
82411;BMP180;72054;55.772;49.096;2023-08-07T03:51:26;100769.00;;;33.60
82411;BMP180;72054;55.772;49.096;2023-08-07T03:52:26;100773.00;;;33.70
82411;BMP180;72054;55.772;49.096;2023-08-07T03:53:27;100770.00;;;33.70
82411;BMP180;72054;55.772;49.096;2023-08-07T03:54:27;100768.00;;;33.80
82411;BMP180;72054;55.772;49.096;2023-08-07T03:55:28;100758.00;;;33.90
82411;BMP180;72054;55.772;49.096;2023-08-07T03:56:28;100776.00;;;34.00
82411;BMP180;72054;55.772;49.096;2023-08-07T03:57:32;100764.00;;;34.00
82411;BMP180;72054;55.772;49.096;2023-08-07T03:58:33;100775.00;;;34.10
82411;BMP180;72054;55.772;49.096;2023-08-07T03:59:33;100760.00;;;34.10
82411;BMP180;72054;55.772;49.096;2023-08-07T04:00:34;100764.00;;;34.20
82411;BMP180;72054;55.772;49.096;2023-08-07T04:01:34;100766.00;;;34.20
82411;BMP180;72054;55.772;49.096;2023-08-07T04:02:35;100768.00;;;34.30
82411;BMP180;72054;55.772;49.096;2023-08-07T04:03:35;100766.00;;;34.30
82411;BMP180;72054;55.772;49.096;2023-08-07T04:04:36;100762.00;;;34.40
82411;BMP180;72054;55.772;49.096;2023-08-07T04:05:37;100764.00;;;34.40
82411;BMP180;72054;55.772;49.096;2023-08-07T04:06:37;100766.00;;;34.40
82411;BMP180;72054;55.772;49.096;2023-08-07T04:07:37;100766.00;;;34.40
82411;BMP180;72054;55.772;49.096;2023-08-07T04:08:38;100762.00;;;34.50
82411;BMP180;72054;55.772;49.096;2023-08-07T04:09:38;100771.00;;;34.50
82411;BMP180;72054;55.772;49.096;2023-08-07T04:10:39;100770.00;;;34.60
82411;BMP180;72054;55.772;49.096;2023-08-07T04:11:40;100754.00;;;34.60
82411;BMP180;72054;55.772;49.096;2023-08-07T04:12:40;100765.00;;;34.70
82411;BMP180;72054;55.772;49.096;2023-08-07T04:13:41;100766.00;;;34.80
82411;BMP180;72054;55.772;49.096;2023-08-07T04:14:41;100767.00;;;34.80
82411;BMP180;72054;55.772;49.096;2023-08-07T04:15:42;100764.00;;;34.90
82411;BMP180;72054;55.772;49.096;2023-08-07T04:16:42;100761.00;;;34.90
82411;BMP180;72054;55.772;49.096;2023-08-07T04:17:43;100769.00;;;35.00
82411;BMP180;72054;55.772;49.096;2023-08-07T04:18:43;100762.00;;;35.00
82411;BMP180;72054;55.772;49.096;2023-08-07T04:19:44;100742.00;;;35.10
82411;BMP180;72054;55.772;49.096;2023-08-07T04:20:54;100738.00;;;35.10
82411;BMP180;72054;55.772;49.096;2023-08-07T04:21:54;100767.00;;;35.10
82411;BMP180;72054;55.772;49.096;2023-08-07T04:22:55;100760.00;;;35.10
82411;BMP180;72054;55.772;49.096;2023-08-07T04:23:55;100757.00;;;35.20
82411;BMP180;72054;55.772;49.096;2023-08-07T04:24:56;100746.00;;;35.20
82411;BMP180;72054;55.772;49.096;2023-08-07T04:25:56;100741.00;;;35.20
82411;BMP180;72054;55.772;49.096;2023-08-07T04:26:57;100753.00;;;35.20
82411;BMP180;72054;55.772;49.096;2023-08-07T04:27:57;100753.00;;;35.20
82411;BMP180;72054;55.772;49.096;2023-08-07T04:28:58;100753.00;;;35.30
82411;BMP180;72054;55.772;49.096;2023-08-07T04:29:58;100744.00;;;35.30
82411;BMP180;72054;55.772;49.096;2023-08-07T04:30:59;100745.00;;;35.40
82411;BMP180;72054;55.772;49.096;2023-08-07T04:31:59;100757.00;;;35.40
82411;BMP180;72054;55.772;49.096;2023-08-07T04:33:00;100748.00;;;35.50
82411;BMP180;72054;55.772;49.096;2023-08-07T04:34:00;100749.00;;;35.60
82411;BMP180;72054;55.772;49.096;2023-08-07T04:35:01;100747.00;;;35.60
82411;BMP180;72054;55.772;49.096;2023-08-07T04:36:01;100752.00;;;35.60
82411;BMP180;72054;55.772;49.096;2023-08-07T04:37:02;100752.00;;;35.60
82411;BMP180;72054;55.772;49.096;2023-08-07T04:38:02;100755.00;;;35.70
82411;BMP180;72054;55.772;49.096;2023-08-07T04:39:03;100753.00;;;35.70
82411;BMP180;72054;55.772;49.096;2023-08-07T04:40:04;100758.00;;;35.80
82411;BMP180;72054;55.772;49.096;2023-08-07T04:41:04;100742.00;;;35.80
82411;BMP180;72054;55.772;49.096;2023-08-07T04:42:05;100747.00;;;35.90
82411;BMP180;72054;55.772;49.096;2023-08-07T04:43:06;100752.00;;;35.90
82411;BMP180;72054;55.772;49.096;2023-08-07T04:44:06;100744.00;;;35.90
82411;BMP180;72054;55.772;49.096;2023-08-07T04:45:07;100743.00;;;36.00
82411;BMP180;72054;55.772;49.096;2023-08-07T04:46:10;100758.00;;;36.00
82411;BMP180;72054;55.772;49.096;2023-08-07T04:47:12;100759.00;;;36.00
82411;BMP180;72054;55.772;49.096;2023-08-07T04:48:13;100744.00;;;36.10
82411;BMP180;72054;55.772;49.096;2023-08-07T04:49:14;100743.00;;;36.20
82411;BMP180;72054;55.772;49.096;2023-08-07T04:50:15;100745.00;;;36.20
82411;BMP180;72054;55.772;49.096;2023-08-07T04:51:15;100753.00;;;36.30
82411;BMP180;72054;55.772;49.096;2023-08-07T04:52:16;100750.00;;;36.30
82411;BMP180;72054;55.772;49.096;2023-08-07T04:53:16;100749.00;;;36.30
82411;BMP180;72054;55.772;49.096;2023-08-07T04:54:17;100748.00;;;36.40
82411;BMP180;72054;55.772;49.096;2023-08-07T04:55:17;100745.00;;;36.40
82411;BMP180;72054;55.772;49.096;2023-08-07T04:56:17;100752.00;;;36.40
82411;BMP180;72054;55.772;49.096;2023-08-07T04:57:18;100749.00;;;36.40
82411;BMP180;72054;55.772;49.096;2023-08-07T04:58:18;100751.00;;;36.40
82411;BMP180;72054;55.772;49.096;2023-08-07T04:59:19;100747.00;;;36.40
82411;BMP180;72054;55.772;49.096;2023-08-07T05:00:21;100732.00;;;36.40
82411;BMP180;72054;55.772;49.096;2023-08-07T05:01:22;100740.00;;;36.40
82411;BMP180;72054;55.772;49.096;2023-08-07T05:02:22;100741.00;;;36.30
82411;BMP180;72054;55.772;49.096;2023-08-07T05:03:23;100737.00;;;36.30
82411;BMP180;72054;55.772;49.096;2023-08-07T05:04:24;100744.00;;;36.40
82411;BMP180;72054;55.772;49.096;2023-08-07T05:05:24;100736.00;;;36.30
82411;BMP180;72054;55.772;49.096;2023-08-07T05:06:25;100741.00;;;36.40
82411;BMP180;72054;55.772;49.096;2023-08-07T05:07:25;100732.00;;;36.40
82411;BMP180;72054;55.772;49.096;2023-08-07T05:08:26;100738.00;;;36.40
82411;BMP180;72054;55.772;49.096;2023-08-07T05:09:29;100714.00;;;36.50
82411;BMP180;72054;55.772;49.096;2023-08-07T05:10:29;100709.00;;;37.20
82411;BMP180;72054;55.772;49.096;2023-08-07T05:11:30;100730.00;;;38.30
82411;BMP180;72054;55.772;49.096;2023-08-07T05:12:30;100726.00;;;39.50
82411;BMP180;72054;55.772;49.096;2023-08-07T05:13:31;100706.00;;;40.90
82411;BMP180;72054;55.772;49.096;2023-08-07T05:14:32;100691.00;;;42.20
82411;BMP180;72054;55.772;49.096;2023-08-07T05:15:33;100660.00;;;43.50
82411;BMP180;72054;55.772;49.096;2023-08-07T05:16:33;100705.00;;;44.80
82411;BMP180;72054;55.772;49.096;2023-08-07T05:17:34;100643.00;;;45.90
82411;BMP180;72054;55.772;49.096;2023-08-07T05:18:34;100716.00;;;47.10
82411;BMP180;72054;55.772;49.096;2023-08-07T05:19:34;100711.00;;;48.00
82411;BMP180;72054;55.772;49.096;2023-08-07T05:20:35;100715.00;;;49.10
82411;BMP180;72054;55.772;49.096;2023-08-07T05:21:35;100729.00;;;49.90
82411;BMP180;72054;55.772;49.096;2023-08-07T05:22:38;100721.00;;;50.80
82411;BMP180;72054;55.772;49.096;2023-08-07T05:23:41;100688.00;;;51.30
82411;BMP180;72054;55.772;49.096;2023-08-07T05:24:41;100727.00;;;51.90
82411;BMP180;72054;55.772;49.096;2023-08-07T05:25:47;100674.00;;;52.20
82411;BMP180;72054;55.772;49.096;2023-08-07T05:26:50;100704.00;;;52.60
82411;BMP180;72054;55.772;49.096;2023-08-07T05:27:51;100732.00;;;52.90
82411;BMP180;72054;55.772;49.096;2023-08-07T05:28:51;100738.00;;;53.30
82411;BMP180;72054;55.772;49.096;2023-08-07T05:29:52;100725.00;;;53.80
82411;BMP180;72054;55.772;49.096;2023-08-07T05:30:52;100734.00;;;54.10
82411;BMP180;72054;55.772;49.096;2023-08-07T05:31:53;100751.00;;;54.40
82411;BMP180;72054;55.772;49.096;2023-08-07T05:32:53;100732.00;;;54.80
82411;BMP180;72054;55.772;49.096;2023-08-07T05:33:53;100675.00;;;54.80
82411;BMP180;72054;55.772;49.096;2023-08-07T05:34:54;100712.00;;;54.90
82411;BMP180;72054;55.772;49.096;2023-08-07T05:35:54;100718.00;;;54.90
82411;BMP180;72054;55.772;49.096;2023-08-07T05:36:55;100735.00;;;55.10
82411;BMP180;72054;55.772;49.096;2023-08-07T05:37:56;100718.00;;;55.00
82411;BMP180;72054;55.772;49.096;2023-08-07T05:38:56;100687.00;;;55.00
82411;BMP180;72054;55.772;49.096;2023-08-07T05:39:57;100736.00;;;55.10
82411;BMP180;72054;55.772;49.096;2023-08-07T05:40:58;100719.00;;;55.10
82411;BMP180;72054;55.772;49.096;2023-08-07T05:41:58;100733.00;;;55.00
82411;BMP180;72054;55.772;49.096;2023-08-07T05:42:59;100740.00;;;55.10
82411;BMP180;72054;55.772;49.096;2023-08-07T05:43:59;100756.00;;;55.20
82411;BMP180;72054;55.772;49.096;2023-08-07T05:45:00;100741.00;;;55.40
82411;BMP180;72054;55.772;49.096;2023-08-07T05:46:00;100709.00;;;55.40